Time;durP1;ratioP1;P1;durP2;ratioP2;P2;SDS_P1;SDS_P2;PMS_P1;PMS_P2;Temp;Humidity;BMP_temperature;BMP_pressure;BME280_temperature;BME280_humidity;BME280_pressure;Samples;Min_cycle;Max_cycle;Signal;HPM_P1;HPM_P2
2022/01/06 00:01:20;;;;;;;4.60;2.50;;;;;;;0.55;79.91;95562.18;107369;1271;34914;-74
2022/01/06 00:03:52;;;;;;;6.50;3.80;;;;;;;0.55;80.04;95555.08;107301;1271;49086;-74
2022/01/06 00:06:24;;;;;;;6.50;3.20;;;;;;;0.54;80.54;95558.67;107334;1272;53386;-74
2022/01/06 00:08:56;;;;;;;7.60;3.40;;;;;;;0.54;80.57;95555.95;107471;1271;44242;-74
2022/01/06 00:11:27;;;;;;;7.60;3.40;;;;;;;0.53;80.78;95555.05;107400;1271;47865;-74
2022/01/06 00:14:03;;;;;;;7.90;3.90;;;;;;;0.51;80.87;95556.39;107372;1274;35013;-74
2022/01/06 00:16:41;;;;;;;6.10;3.40;;;;;;;0.48;81.08;95553.38;107298;1274;42212;-74
2022/01/06 00:24:51;;;;;;;7.10;2.50;;;;;;;0.44;81.49;95543.64;107389;1271;34278;-74
2022/01/06 00:27:22;;;;;;;6.50;3.50;;;;;;;0.43;81.36;95539.77;107394;1271;32532;-74
2022/01/06 00:29:53;;;;;;;5.40;3.30;;;;;;;0.43;81.38;95547.46;107393;1271;32797;-74
2022/01/06 00:32:24;;;;;;;8.50;4.00;;;;;;;0.42;81.64;95545.64;107320;1271;48257;-74
2022/01/06 00:34:55;;;;;;;7.60;3.50;;;;;;;0.40;81.70;95554.73;107415;1271;41567;-74
2022/01/06 00:37:25;;;;;;;5.80;3.30;;;;;;;0.40;81.94;95566.40;107438;1271;45372;-74
2022/01/06 00:39:56;;;;;;;4.80;2.40;;;;;;;0.42;81.52;95563.67;107445;1271;37540;-74
2022/01/06 00:42:29;;;;;;;7.90;3.30;;;;;;;0.44;81.60;95559.38;107397;1271;34158;-74
2022/01/06 00:44:59;;;;;;;5.10;2.70;;;;;;;0.45;81.71;95564.46;107399;1274;36041;-74
2022/01/06 00:47:30;;;;;;;6.90;2.40;;;;;;;0.45;81.69;95562.63;107421;1271;33223;-74
2022/01/06 00:50:01;;;;;;;5.40;2.70;;;;;;;0.45;81.40;95558.73;107483;1271;44958;-74
2022/01/06 00:52:33;;;;;;;4.00;2.60;;;;;;;0.46;81.73;95558.37;107543;1271;39288;-74
2022/01/06 00:55:04;;;;;;;5.30;2.30;;;;;;;0.48;81.65;95555.95;107554;1271;34278;-74
2022/01/06 00:57:35;;;;;;;4.30;2.10;;;;;;;0.50;81.39;95556.17;107554;1271;44610;-74
2022/01/06 01:00:10;;;;;;;6.60;2.10;;;;;;;0.52;81.13;95557.71;107504;1271;31157;-74
2022/01/06 01:02:41;;;;;;;5.90;1.80;;;;;;;0.55;80.86;95550.50;107548;1268;42069;-74
2022/01/06 01:05:12;;;;;;;2.70;1.60;;;;;;;0.55;80.85;95548.36;107551;1271;37677;-74
2022/01/06 01:07:43;;;;;;;4.40;2.00;;;;;;;0.55;80.44;95550.39;107502;1271;40934;-74
2022/01/06 01:10:14;;;;;;;3.60;1.20;;;;;;;0.55;80.72;95560.73;107530;1271;42478;-74
2022/01/06 01:12:48;;;;;;;3.10;1.90;;;;;;;0.57;80.58;95564.31;107542;1271;32931;-74
2022/01/06 01:15:20;;;;;;;4.80;2.10;;;;;;;0.59;80.42;95570.28;107485;1271;47948;-74
2022/01/06 01:17:52;;;;;;;3.00;1.70;;;;;;;0.60;80.26;95564.76;107437;1271;46063;-74
2022/01/06 01:20:23;;;;;;;4.40;2.00;;;;;;;0.61;80.43;95569.62;107417;1271;50496;-74
2022/01/06 01:22:54;;;;;;;4.10;2.00;;;;;;;0.61;80.10;95565.87;107519;1271;37603;-74
2022/01/06 01:25:25;;;;;;;4.80;2.30;;;;;;;0.60;80.10;95553.70;107369;1271;44878;-74
2022/01/06 01:27:57;;;;;;;3.50;2.00;;;;;;;0.59;80.31;95555.98;107428;1271;30411;-74
2022/01/06 01:30:32;;;;;;;3.80;2.50;;;;;;;0.57;80.26;95550.76;107525;1271;47307;-74
2022/01/06 01:33:02;;;;;;;4.00;1.80;;;;;;;0.55;80.15;95552.90;107544;1271;32490;-74
2022/01/06 01:35:33;;;;;;;4.60;2.10;;;;;;;0.53;80.38;95554.08;107531;1271;31313;-74
2022/01/06 01:38:04;;;;;;;5.50;2.20;;;;;;;0.52;80.45;95561.30;107579;1271;32141;-75
2022/01/06 01:40:35;;;;;;;3.50;2.10;;;;;;;0.52;80.40;95570.08;107539;1271;48994;-74
2022/01/06 01:43:06;;;;;;;2.00;1.40;;;;;;;0.54;80.34;95562.17;107483;1270;45539;-74
2022/01/06 01:45:45;;;;;;;4.30;2.20;;;;;;;0.55;80.59;95562.81;107558;1271;43525;-74
2022/01/06 01:48:23;;;;;;;4.40;2.10;;;;;;;0.56;80.63;95559.12;107493;1271;33555;-74
2022/01/06 01:50:54;;;;;;;3.50;1.80;;;;;;;0.55;80.46;95559.77;107527;1270;34406;-74
2022/01/06 01:53:24;;;;;;;3.60;2.30;;;;;;;0.56;80.54;95564.14;107589;1270;31671;-74
2022/01/06 01:55:56;;;;;;;5.90;2.00;;;;;;;0.57;80.31;95565.92;107576;1271;43875;-74
2022/01/06 01:58:26;;;;;;;4.60;2.10;;;;;;;0.58;80.37;95560.88;107572;1271;37303;-74
2022/01/06 02:00:57;;;;;;;3.60;1.60;;;;;;;0.59;80.10;95562.20;107548;1271;40247;-74
2022/01/06 02:03:28;;;;;;;2.40;1.80;;;;;;;0.59;80.23;95560.80;107531;1271;35305;-74
2022/01/06 02:05:59;;;;;;;6.00;2.00;;;;;;;0.59;80.07;95557.15;107498;1271;31315;-74
2022/01/06 02:08:30;;;;;;;3.30;1.80;;;;;;;0.61;80.09;95559.41;107598;1271;58685;-74
2022/01/06 02:11:02;;;;;;;3.40;1.50;;;;;;;0.62;79.99;95562.55;107412;1271;46281;-74
2022/01/06 02:13:33;;;;;;;3.00;2.00;;;;;;;0.63;79.97;95564.23;107501;1271;37240;-74
2022/01/06 02:16:04;;;;;;;2.70;1.70;;;;;;;0.64;79.83;95559.48;107541;1271;45370;-74
2022/01/06 02:18:34;;;;;;;3.90;1.90;;;;;;;0.63;79.92;95565.05;107494;1271;50210;-74
2022/01/06 02:21:05;;;;;;;4.30;1.30;;;;;;;0.64;80.05;95571.48;107529;1271;45454;-74
2022/01/06 02:23:36;;;;;;;5.70;2.00;;;;;;;0.62;80.06;95568.23;107551;1271;44481;-74
2022/01/06 02:26:07;;;;;;;2.10;1.40;;;;;;;0.58;80.16;95578.09;107470;1271;41715;-74
2022/01/06 02:28:40;;;;;;;3.70;1.90;;;;;;;0.57;79.97;95585.33;107490;1271;40850;-74
2022/01/06 02:31:11;;;;;;;3.40;1.50;;;;;;;0.58;79.67;95595.15;107430;1271;37302;-74
2022/01/06 02:33:42;;;;;;;7.10;1.90;;;;;;;0.60;79.75;95596.73;107506;1271;36839;-74
2022/01/06 02:36:13;;;;;;;2.30;1.50;;;;;;;0.61;80.07;95596.85;107484;1271;39982;-74
2022/01/06 02:38:44;;;;;;;5.20;1.80;;;;;;;0.62;80.01;95591.85;107501;1271;35578;-74
2022/01/06 02:41:15;;;;;;;3.70;2.00;;;;;;;0.61;79.76;95585.95;107475;1271;39967;-74
2022/01/06 02:43:45;;;;;;;4.90;1.80;;;;;;;0.62;79.90;95583.14;107558;1271;34039;-74
2022/01/06 02:46:16;;;;;;;3.10;1.70;;;;;;;0.63;79.71;95581.85;107494;1271;46423;-74
2022/01/06 02:48:47;;;;;;;4.30;2.50;;;;;;;0.62;79.82;95577.72;107580;1268;38085;-74
2022/01/06 02:51:18;;;;;;;4.90;2.10;;;;;;;0.59;79.84;95577.17;107595;1271;33565;-74
2022/01/06 02:53:53;;;;;;;4.90;1.90;;;;;;;0.58;79.66;95563.80;107472;1271;39125;-74
2022/01/06 02:56:24;;;;;;;2.60;1.80;;;;;;;0.55;79.85;95560.73;107550;1271;41185;-74
2022/01/06 02:58:55;;;;;;;2.90;1.20;;;;;;;0.53;79.97;95563.91;107429;1271;32866;-74
2022/01/06 03:01:26;;;;;;;2.60;1.50;;;;;;;0.52;79.99;95560.27;107604;1271;41010;-74
2022/01/06 03:03:57;;;;;;;3.50;1.70;;;;;;;0.52;79.61;95554.84;107598;1271;30221;-74
2022/01/06 03:06:28;;;;;;;4.70;1.60;;;;;;;0.52;79.67;95562.61;107603;1271;48030;-74
2022/01/06 03:08:58;;;;;;;3.20;1.30;;;;;;;0.54;79.45;95558.04;107588;1271;43968;-74
2022/01/06 03:11:30;;;;;;;1.40;1.20;;;;;;;0.53;79.53;95555.33;107591;1271;43223;-74
2022/01/06 03:14:02;;;;;;;5.20;1.90;;;;;;;0.51;79.76;95555.98;107535;1269;41725;-74
2022/01/06 03:16:32;;;;;;;3.30;2.00;;;;;;;0.50;79.38;95544.17;107468;1271;42622;-74
2022/01/06 03:19:03;;;;;;;2.70;1.40;;;;;;;0.51;79.10;95545.13;107541;1271;33760;-74
2022/01/06 03:21:34;;;;;;;2.60;1.80;;;;;;;0.50;79.46;95542.58;107467;1271;47660;-74
2022/01/06 03:24:06;;;;;;;1.90;1.50;;;;;;;0.48;79.49;95541.91;107473;1271;46753;-75
2022/01/06 03:26:37;;;;;;;4.00;1.60;;;;;;;0.47;79.46;95545.77;107559;1271;39914;-74
2022/01/06 03:29:08;;;;;;;3.90;1.00;;;;;;;0.47;79.55;95542.47;107522;1271;41355;-74
2022/01/06 03:31:38;;;;;;;2.10;1.50;;;;;;;0.47;79.52;95542.89;107438;1271;44829;-74
2022/01/06 03:34:09;;;;;;;5.20;1.50;;;;;;;0.51;79.59;95551.29;107511;1271;43553;-74
2022/01/06 03:36:40;;;;;;;2.40;1.30;;;;;;;0.54;79.46;95553.19;107510;1271;45629;-74
2022/01/06 03:39:11;;;;;;;1.60;0.90;;;;;;;0.56;79.50;95554.22;107542;1271;32979;-74
2022/01/06 03:41:42;;;;;;;2.40;1.40;;;;;;;0.57;79.30;95555.25;107499;1270;44188;-74
2022/01/06 03:44:12;;;;;;;2.70;1.00;;;;;;;0.62;79.39;95560.86;107531;1271;42769;-74
2022/01/06 03:46:43;;;;;;;2.90;1.70;;;;;;;0.63;79.22;95566.15;107558;1271;28483;-74
2022/01/06 03:49:14;;;;;;;2.20;1.10;;;;;;;0.63;79.32;95565.37;107532;1271;43469;-74
2022/01/06 03:51:45;;;;;;;2.20;1.10;;;;;;;0.63;79.52;95557.75;107519;1271;41971;-74
2022/01/06 03:54:16;;;;;;;5.10;1.20;;;;;;;0.61;79.35;95564.20;107563;1271;39708;-74
2022/01/06 03:56:48;;;;;;;4.30;1.20;;;;;;;0.62;79.41;95563.27;107530;1271;32713;-74
2022/01/06 03:59:20;;;;;;;1.70;1.00;;;;;;;0.62;79.61;95570.58;107558;1271;45260;-74
2022/01/06 04:01:51;;;;;;;3.20;1.60;;;;;;;0.62;79.25;95570.10;107546;1271;42061;-74
2022/01/06 04:04:22;;;;;;;3.50;1.30;;;;;;;0.61;79.39;95563.36;107452;1271;46170;-74
2022/01/06 04:06:53;;;;;;;3.60;1.20;;;;;;;0.61;79.30;95566.81;107490;1271;41196;-74
2022/01/06 04:09:23;;;;;;;3.00;1.60;;;;;;;0.61;79.50;95573.17;107489;1271;41405;-74
2022/01/06 04:11:54;;;;;;;0.80;0.60;;;;;;;0.60;79.71;95576.77;107512;1271;31410;-74
2022/01/06 04:14:25;;;;;;;7.00;1.70;;;;;;;0.63;79.43;95577.36;107517;1271;62906;-74
2022/01/06 04:16:59;;;;;;;1.30;1.20;;;;;;;0.64;79.25;95578.01;107406;1271;40086;-74
2022/01/06 04:19:30;;;;;;;2.90;1.20;;;;;;;0.65;79.43;95579.99;107544;1271;32217;-75
2022/01/06 04:22:01;;;;;;;2.90;1.30;;;;;;;0.65;78.87;95587.72;107475;1271;42588;-75
2022/01/06 04:24:32;;;;;;;3.90;1.30;;;;;;;0.68;79.18;95583.00;107488;1271;42238;-74
2022/01/06 04:27:03;;;;;;;2.60;1.20;;;;;;;0.69;79.11;95593.23;107370;1271;41827;-74
2022/01/06 04:29:34;;;;;;;4.40;1.60;;;;;;;0.70;79.31;95593.46;107437;1271;40593;-74
2022/01/06 04:32:06;;;;;;;2.40;1.40;;;;;;;0.70;79.02;95589.56;107495;1271;41690;-74
2022/01/06 04:34:37;;;;;;;3.10;1.50;;;;;;;0.70;79.12;95585.45;107507;1271;42645;-73
2022/01/06 04:37:08;;;;;;;1.70;1.20;;;;;;;0.70;79.07;95587.67;107559;1271;39120;-74
2022/01/06 04:39:39;;;;;;;2.10;1.10;;;;;;;0.70;78.99;95587.73;107517;1271;42515;-74
2022/01/06 04:42:10;;;;;;;5.10;1.30;;;;;;;0.72;78.90;95581.31;107401;1271;42358;-74
2022/01/06 04:44:41;;;;;;;2.20;1.20;;;;;;;0.73;78.86;95582.27;107554;1271;42278;-74
2022/01/06 04:47:12;;;;;;;2.30;1.20;;;;;;;0.74;78.63;95587.22;107579;1271;41276;-74
2022/01/06 04:49:43;;;;;;;5.50;1.70;;;;;;;0.75;78.51;95591.56;107526;1271;44043;-74
2022/01/06 04:52:14;;;;;;;1.50;1.10;;;;;;;0.75;78.77;95586.03;107534;1271;37883;-74
2022/01/06 04:54:44;;;;;;;1.80;1.30;;;;;;;0.73;78.84;95589.77;107572;1271;40423;-74
2022/01/06 04:57:15;;;;;;;3.60;1.10;;;;;;;0.73;79.02;95595.97;107501;1271;42386;-74
2022/01/06 04:59:46;;;;;;;1.60;1.20;;;;;;;0.73;78.71;95601.71;107521;1271;45234;-74
2022/01/06 05:02:17;;;;;;;3.20;1.40;;;;;;;0.73;79.04;95602.18;107503;1271;42984;-74
2022/01/06 05:04:48;;;;;;;4.20;1.70;;;;;;;0.73;78.91;95602.98;107481;1271;46829;-73
2022/01/06 05:07:19;;;;;;;2.50;1.40;;;;;;;0.72;79.08;95602.64;107539;1271;32267;-74
2022/01/06 05:09:49;;;;;;;3.20;1.80;;;;;;;0.72;78.97;95603.02;107468;1271;46292;-74
2022/01/06 05:12:21;;;;;;;1.50;1.30;;;;;;;0.72;79.03;95606.86;107526;1271;35942;-73
2022/01/06 05:14:52;;;;;;;4.50;1.70;;;;;;;0.71;79.31;95608.00;107466;1271;41772;-74
2022/01/06 05:17:23;;;;;;;4.40;2.40;;;;;;;0.72;79.16;95610.57;107494;1271;36137;-74
2022/01/06 05:19:54;;;;;;;3.30;2.00;;;;;;;0.72;79.24;95608.75;107450;1271;43963;-74
2022/01/06 05:22:25;;;;;;;3.00;1.50;;;;;;;0.72;79.17;95612.34;107492;1271;52265;-74
2022/01/06 05:24:56;;;;;;;2.70;1.70;;;;;;;0.70;79.44;95618.93;107389;1271;42477;-74
2022/01/06 05:27:27;;;;;;;1.70;1.00;;;;;;;0.68;79.36;95618.95;107411;1271;42458;-74
2022/01/06 05:29:58;;;;;;;4.50;1.40;;;;;;;0.68;79.59;95625.56;107414;1271;41469;-74
2022/01/06 05:32:29;;;;;;;3.50;1.50;;;;;;;0.68;79.49;95630.33;107401;1271;42467;-74
2022/01/06 05:34:59;;;;;;;2.40;1.80;;;;;;;0.69;79.62;95641.80;107467;1271;37778;-73
2022/01/06 05:37:30;;;;;;;4.00;2.10;;;;;;;0.70;79.61;95644.38;107493;1271;34702;-74
2022/01/06 05:40:01;;;;;;;2.40;1.80;;;;;;;0.71;79.59;95643.98;107424;1271;55995;-74
2022/01/06 05:42:32;;;;;;;3.20;1.70;;;;;;;0.72;79.53;95648.50;107368;1271;45002;-74
2022/01/06 05:45:03;;;;;;;4.90;2.00;;;;;;;0.73;79.49;95644.13;107335;1271;32472;-74
2022/01/06 05:47:34;;;;;;;2.80;1.60;;;;;;;0.72;79.56;95643.65;107349;1274;40613;-74
2022/01/06 05:50:06;;;;;;;3.00;1.70;;;;;;;0.72;79.78;95648.86;107346;1271;45559;-74
2022/01/06 05:52:37;;;;;;;4.40;2.10;;;;;;;0.73;79.81;95649.66;107377;1271;57171;-74
2022/01/06 05:55:09;;;;;;;4.10;1.80;;;;;;;0.74;79.94;95653.68;107428;1271;30913;-74
2022/01/06 05:57:40;;;;;;;3.80;2.10;;;;;;;0.74;79.75;95651.23;107404;1271;48826;-74
2022/01/06 06:00:13;;;;;;;3.30;1.80;;;;;;;0.72;79.92;95650.59;107435;1271;41369;-74
2022/01/06 06:02:45;;;;;;;3.30;1.80;;;;;;;0.74;79.62;95655.41;107420;1271;44003;-74
2022/01/06 06:05:16;;;;;;;5.30;1.90;;;;;;;0.77;79.88;95656.17;107451;1271;43512;-74
2022/01/06 06:07:47;;;;;;;4.20;1.50;;;;;;;0.80;79.69;95658.09;107415;1271;49993;-74
2022/01/06 06:10:18;;;;;;;3.60;1.50;;;;;;;0.81;79.68;95660.46;107373;1271;46430;-74
2022/01/06 06:12:52;;;;;;;2.10;1.20;;;;;;;0.84;79.45;95658.02;107349;1271;43607;-74
2022/01/06 06:15:24;;;;;;;3.90;1.70;;;;;;;0.86;79.45;95663.88;107381;1271;32613;-74
2022/01/06 06:17:55;;;;;;;3.70;1.40;;;;;;;0.88;79.37;95661.02;107332;1271;35838;-74
2022/01/06 06:20:25;;;;;;;2.80;0.90;;;;;;;0.90;79.37;95664.03;107456;1271;55234;-74
2022/01/06 06:22:56;;;;;;;2.90;1.60;;;;;;;0.92;79.14;95665.88;107506;1271;39767;-74
2022/01/06 06:25:27;;;;;;;2.30;1.40;;;;;;;0.95;79.29;95664.45;107554;1271;39041;-74
2022/01/06 06:27:58;;;;;;;4.90;2.00;;;;;;;0.95;79.31;95667.95;107459;1271;49055;-74
2022/01/06 06:30:29;;;;;;;3.00;1.80;;;;;;;0.96;79.04;95677.46;107519;1271;37215;-74
2022/01/06 06:33:01;;;;;;;4.80;2.00;;;;;;;0.97;79.35;95681.06;107449;1271;41453;-74
2022/01/06 06:35:33;;;;;;;4.30;1.60;;;;;;;0.97;79.44;95685.24;107466;1271;39305;-74
2022/01/06 06:38:03;;;;;;;3.10;1.50;;;;;;;0.98;79.00;95687.14;107485;1270;42556;-74
2022/01/06 06:40:34;;;;;;;3.60;1.60;;;;;;;0.99;78.89;95690.52;107502;1271;45349;-74
2022/01/06 06:43:05;;;;;;;3.00;1.60;;;;;;;1.00;78.82;95694.08;107445;1271;39846;-74
2022/01/06 06:45:36;;;;;;;4.10;1.80;;;;;;;0.99;79.02;95694.38;107458;1270;36684;-74
2022/01/06 06:48:07;;;;;;;3.30;1.40;;;;;;;1.00;79.07;95689.44;107459;1271;46960;-74
2022/01/06 06:50:38;;;;;;;3.70;1.50;;;;;;;1.02;79.04;95693.52;107513;1271;33910;-74
2022/01/06 06:53:09;;;;;;;3.40;1.70;;;;;;;1.02;79.06;95690.45;107465;1271;33929;-74
2022/01/06 06:55:40;;;;;;;3.00;1.40;;;;;;;1.03;78.79;95690.30;107430;1271;40543;-73
2022/01/06 06:58:11;;;;;;;3.70;2.10;;;;;;;1.05;78.97;95692.78;107439;1271;36843;-74
2022/01/06 07:00:42;;;;;;;2.20;1.40;;;;;;;1.06;78.89;95699.02;107440;1271;34694;-74
2022/01/06 07:03:13;;;;;;;2.90;1.60;;;;;;;1.06;78.59;95701.94;107453;1271;37443;-74
2022/01/06 07:05:43;;;;;;;4.20;1.30;;;;;;;1.07;78.61;95701.20;107380;1271;48873;-74
2022/01/06 07:08:14;;;;;;;4.30;1.50;;;;;;;1.09;78.41;95709.38;107413;1271;34662;-74
2022/01/06 07:10:45;;;;;;;2.10;1.60;;;;;;;1.11;78.34;95711.07;107377;1271;44005;-74
2022/01/06 07:13:16;;;;;;;6.20;2.10;;;;;;;1.13;78.27;95709.25;107481;1271;48407;-74
2022/01/06 07:15:47;;;;;;;5.00;1.70;;;;;;;1.12;78.26;95716.95;107440;1271;45138;-74
2022/01/06 07:18:18;;;;;;;4.90;2.10;;;;;;;1.15;78.02;95713.45;107448;1271;43726;-74
2022/01/06 07:20:49;;;;;;;5.10;1.80;;;;;;;1.16;78.02;95712.88;107494;1271;35058;-74
2022/01/06 07:23:20;;;;;;;2.70;1.30;;;;;;;1.18;77.90;95704.81;107468;1271;46740;-74
2022/01/06 07:25:51;;;;;;;4.20;1.90;;;;;;;1.21;77.83;95703.48;107446;1271;45514;-74
2022/01/06 07:28:21;;;;;;;2.60;1.40;;;;;;;1.25;77.70;95702.95;107266;1271;149402;-74
2022/01/06 07:30:52;;;;;;;4.00;1.70;;;;;;;1.29;77.42;95707.52;107264;1271;46839;-74
2022/01/06 07:33:23;;;;;;;2.50;1.20;;;;;;;1.33;76.85;95709.08;107371;1271;51761;-74
2022/01/06 07:35:54;;;;;;;4.00;1.50;;;;;;;1.39;76.70;95708.72;107415;1271;58235;-74
2022/01/06 07:38:26;;;;;;;2.00;1.10;;;;;;;1.41;76.94;95711.23;107419;1271;44721;-74
2022/01/06 07:40:57;;;;;;;1.90;1.20;;;;;;;1.44;76.57;95707.40;107564;1271;54040;-74
2022/01/06 07:43:28;;;;;;;5.20;2.90;;;;;;;1.48;76.12;95702.33;107566;1271;31466;-74
2022/01/06 07:45:59;;;;;;;3.10;1.20;;;;;;;1.53;76.26;95703.15;107421;1271;43987;-74
2022/01/06 07:48:47;;;;;;;2.50;1.50;;;;;;;1.57;76.48;95707.23;107557;1271;33260;-74
2022/01/06 07:51:18;;;;;;;2.60;1.20;;;;;;;1.60;75.94;95707.85;107482;1270;41828;-74
2022/01/06 07:53:50;;;;;;;3.00;1.20;;;;;;;1.65;75.96;95708.32;107493;1271;38598;-74
2022/01/06 07:56:21;;;;;;;2.00;1.30;;;;;;;1.71;75.62;95707.92;107487;1271;43892;-74
2022/01/06 07:58:52;;;;;;;4.60;1.40;;;;;;;1.76;75.23;95711.06;107508;1271;38040;-73
2022/01/06 08:01:24;;;;;;;2.30;1.30;;;;;;;1.79;74.55;95707.59;107456;1271;44025;-74
2022/01/06 08:03:55;;;;;;;4.90;1.40;;;;;;;1.82;74.86;95708.02;107482;1271;39094;-74
2022/01/06 08:06:26;;;;;;;1.80;0.90;;;;;;;1.83;74.28;95712.16;107543;1271;35824;-74
2022/01/06 08:08:57;;;;;;;2.30;1.60;;;;;;;1.83;74.35;95714.22;107493;1271;44956;-74
2022/01/06 08:11:27;;;;;;;2.60;0.90;;;;;;;1.82;74.40;95719.37;107562;1271;42755;-74
2022/01/06 08:13:58;;;;;;;2.80;1.10;;;;;;;1.78;74.02;95720.86;107496;1270;34441;-74
2022/01/06 08:16:29;;;;;;;4.40;1.40;;;;;;;1.74;74.33;95720.45;107524;1271;39684;-74
2022/01/06 08:19:00;;;;;;;5.00;1.60;;;;;;;1.72;74.60;95721.42;107586;1269;29649;-74
2022/01/06 08:21:31;;;;;;;2.60;1.30;;;;;;;1.71;74.61;95714.79;107495;1271;46566;-74
2022/01/06 08:24:02;;;;;;;1.50;1.20;;;;;;;1.74;75.01;95721.86;107423;1271;49163;-74
2022/01/06 08:26:33;;;;;;;2.90;2.20;;;;;;;1.77;74.78;95723.20;107422;1271;44360;-75
2022/01/06 08:29:04;;;;;;;3.30;1.70;;;;;;;1.82;75.07;95728.58;107491;1271;41985;-75
2022/01/06 08:31:36;;;;;;;3.30;1.20;;;;;;;1.89;75.48;95733.58;107314;1271;49101;-74
2022/01/06 08:34:07;;;;;;;4.50;1.90;;;;;;;1.94;75.22;95733.42;107501;1271;35156;-74
2022/01/06 08:36:38;;;;;;;5.00;2.10;;;;;;;1.96;74.79;95740.33;107467;1271;33858;-74
2022/01/06 08:39:09;;;;;;;5.50;3.30;;;;;;;1.98;75.01;95746.02;107519;1271;32685;-74
2022/01/06 08:41:40;;;;;;;3.20;1.10;;;;;;;2.02;75.14;95745.02;107445;1271;42343;-74
2022/01/06 08:44:11;;;;;;;3.20;1.80;;;;;;;2.01;74.88;95752.64;107490;1271;31873;-74
2022/01/06 08:46:42;;;;;;;3.20;1.70;;;;;;;2.01;75.14;95756.30;107483;1271;39203;-74
2022/01/06 08:49:13;;;;;;;6.60;2.20;;;;;;;1.96;75.16;95759.30;107482;1269;43610;-74
2022/01/06 08:51:44;;;;;;;4.00;2.30;;;;;;;1.92;75.50;95762.41;107450;1271;48863;-74
2022/01/06 08:54:15;;;;;;;3.40;1.30;;;;;;;1.87;75.70;95758.13;107438;1271;51130;-74
2022/01/06 08:56:46;;;;;;;3.70;1.90;;;;;;;1.83;75.52;95762.02;107456;1271;43158;-74
2022/01/06 08:59:17;;;;;;;3.20;1.80;;;;;;;1.80;76.06;95775.02;107447;1271;43418;-74
2022/01/06 09:01:48;;;;;;;3.60;1.20;;;;;;;1.80;76.14;95773.66;107452;1271;45213;-74
2022/01/06 09:04:20;;;;;;;2.20;1.50;;;;;;;1.76;76.09;95778.58;107458;1271;29251;-74
2022/01/06 09:06:52;;;;;;;2.00;1.30;;;;;;;1.73;76.11;95782.83;107473;1271;34924;-74
2022/01/06 09:09:23;;;;;;;3.20;1.90;;;;;;;1.69;76.43;95780.84;107480;1271;43257;-74
2022/01/06 09:11:54;;;;;;;2.90;1.70;;;;;;;1.65;76.72;95785.60;107509;1271;34436;-74
2022/01/06 09:14:26;;;;;;;2.00;1.30;;;;;;;1.61;77.12;95786.85;107505;1271;40828;-74
2022/01/06 09:16:57;;;;;;;3.70;2.00;;;;;;;1.59;77.26;95791.42;107527;1271;30439;-74
2022/01/06 09:19:28;;;;;;;2.80;1.40;;;;;;;1.58;77.73;95792.77;107479;1271;41889;-74
2022/01/06 09:21:59;;;;;;;3.10;1.90;;;;;;;1.57;77.72;95798.25;107457;1271;49903;-74
2022/01/06 09:24:30;;;;;;;8.10;3.20;;;;;;;1.51;78.74;95802.85;107582;1271;30721;-74
2022/01/06 09:27:01;;;;;;;6.30;2.70;;;;;;;1.46;79.47;95803.10;107722;1267;39633;-74
2022/01/06 09:29:32;;;;;;;6.30;2.80;;;;;;;1.46;79.56;95794.86;107591;1267;32814;-74
2022/01/06 09:32:03;;;;;;;3.70;2.40;;;;;;;1.52;79.68;95795.44;107573;1267;40137;-75
2022/01/06 09:34:34;;;;;;;3.80;2.20;;;;;;;1.58;79.77;95802.75;107741;1267;32617;-75
2022/01/06 09:37:05;;;;;;;4.10;2.10;;;;;;;1.64;80.03;95796.55;107649;1268;47621;-74
2022/01/06 09:39:36;;;;;;;5.20;2.20;;;;;;;1.64;80.20;95796.35;107639;1268;33918;-74
2022/01/06 09:42:08;;;;;;;5.90;2.70;;;;;;;1.74;80.34;95792.23;107591;1268;34773;-74
2022/01/06 09:44:39;;;;;;;4.40;2.10;;;;;;;1.86;80.20;95789.79;107503;1270;41631;-75
2022/01/06 09:47:11;;;;;;;3.60;2.00;;;;;;;1.92;79.61;95776.10;107656;1268;44828;-74
2022/01/06 09:49:44;;;;;;;2.90;1.20;;;;;;;1.94;79.30;95790.65;107743;1268;40931;-74
2022/01/06 09:52:16;;;;;;;2.80;1.80;;;;;;;1.97;78.84;95787.87;107807;1267;39874;-77
2022/01/06 09:54:48;;;;;;;4.50;2.10;;;;;;;1.99;78.87;95788.80;107767;1268;32658;-75
2022/01/06 09:57:19;;;;;;;3.50;2.10;;;;;;;2.01;78.78;95788.66;107806;1268;33765;-75
2022/01/06 09:59:50;;;;;;;4.50;1.60;;;;;;;2.02;78.47;95797.88;107679;1267;53359;-74
2022/01/06 10:02:21;;;;;;;1.80;1.40;;;;;;;2.01;78.66;95794.25;107665;1268;42237;-74
2022/01/06 10:05:02;;;;;;;4.90;1.80;;;;;;;2.02;78.91;95792.48;107577;1271;44039;-75
2022/01/06 10:07:39;;;;;;;4.20;1.70;;;;;;;2.06;79.02;95796.70;107614;1268;38259;-75
2022/01/06 10:10:13;;;;;;;3.50;2.50;;;;;;;2.11;79.12;95794.26;107593;1268;43169;-74
2022/01/06 10:12:55;;;;;;;3.90;2.20;;;;;;;2.14;78.80;95799.22;107605;1267;45673;-75
2022/01/06 10:15:28;;;;;;;3.50;2.40;;;;;;;2.21;79.03;95804.77;107710;1268;39720;-75
2022/01/06 10:18:10;;;;;;;3.80;2.70;;;;;;;2.19;79.16;95802.09;107763;1268;29720;-75
2022/01/06 10:20:42;;;;;;;3.00;1.50;;;;;;;2.14;78.79;95802.57;107805;1268;45627;-75
2022/01/06 10:23:15;;;;;;;3.50;1.80;;;;;;;2.16;78.58;95795.94;107687;1268;43859;-75
2022/01/06 10:25:49;;;;;;;3.90;2.00;;;;;;;2.19;78.44;95798.21;107795;1268;39256;-75
2022/01/06 10:28:23;;;;;;;6.20;2.50;;;;;;;2.19;77.94;95801.14;107771;1268;36120;-74
2022/01/06 10:30:54;;;;;;;3.80;1.90;;;;;;;2.21;77.51;95799.86;107672;1268;41664;-74
2022/01/06 10:33:39;;;;;;;4.30;2.10;;;;;;;2.27;77.47;95807.57;107577;1268;40627;-75
2022/01/06 10:36:19;;;;;;;3.40;1.40;;;;;;;2.36;77.10;95800.85;107710;1268;42368;-75
2022/01/06 10:38:58;;;;;;;3.00;1.50;;;;;;;2.34;77.12;95807.33;107669;1268;31908;-74
2022/01/06 10:41:30;;;;;;;2.70;1.50;;;;;;;2.33;76.36;95803.13;107725;1267;35104;-74
2022/01/06 10:44:03;;;;;;;3.40;2.00;;;;;;;2.31;76.69;95809.96;107658;1268;37937;-75
2022/01/06 10:46:36;;;;;;;4.00;1.70;;;;;;;2.31;76.60;95810.74;107715;1268;41526;-75
2022/01/06 10:49:09;;;;;;;3.80;1.60;;;;;;;2.28;76.10;95809.83;107862;1267;32089;-75
2022/01/06 10:51:45;;;;;;;5.50;2.30;;;;;;;2.26;76.15;95812.17;107741;1268;47155;-74
2022/01/06 10:54:20;;;;;;;4.20;1.50;;;;;;;2.25;76.34;95809.42;107726;1267;35446;-74
2022/01/06 10:57:01;;;;;;;3.50;2.20;;;;;;;2.25;76.01;95803.45;107607;1267;44132;-75
2022/01/06 10:59:34;;;;;;;1.70;1.50;;;;;;;2.23;76.40;95806.45;107621;1268;41795;-75
2022/01/06 11:02:06;;;;;;;4.50;1.90;;;;;;;2.19;75.87;95798.84;107711;1268;42370;-75
2022/01/06 11:04:37;;;;;;;4.00;2.50;;;;;;;2.17;76.00;95802.48;107766;1268;37193;-74
2022/01/06 11:07:09;;;;;;;3.40;2.00;;;;;;;2.23;76.52;95807.56;107788;1268;31752;-74
2022/01/06 11:09:45;;;;;;;3.30;2.20;;;;;;;2.26;76.50;95809.92;107697;1265;31784;-75
2022/01/06 11:12:31;;;;;;;3.80;2.00;;;;;;;2.25;76.37;95812.31;107620;1268;37016;-75
2022/01/06 11:15:02;;;;;;;5.00;2.00;;;;;;;2.23;76.73;95809.09;107679;1268;44749;-75
2022/01/06 11:17:34;;;;;;;3.50;2.20;;;;;;;2.17;76.83;95812.73;107703;1268;46604;-75
2022/01/06 11:20:06;;;;;;;4.00;2.20;;;;;;;2.11;76.78;95816.11;107628;1267;37139;-75
2022/01/06 11:22:37;;;;;;;4.00;1.80;;;;;;;2.06;76.63;95807.11;107752;1268;42429;-75
2022/01/06 11:25:10;;;;;;;5.00;1.30;;;;;;;2.05;76.41;95811.02;107585;1268;44064;-75
2022/01/06 11:27:41;;;;;;;3.50;1.30;;;;;;;2.09;76.16;95806.77;107659;1268;39611;-75
2022/01/06 11:30:15;;;;;;;2.30;1.20;;;;;;;2.11;75.81;95801.79;107690;1268;41737;-74
2022/01/06 11:32:46;;;;;;;9.50;1.30;;;;;;;2.05;76.32;95813.02;107561;1268;36949;-75
2022/01/06 11:35:21;;;;;;;3.50;1.70;;;;;;;2.00;77.11;95820.75;107640;1267;37879;-75
2022/01/06 11:37:57;;;;;;;8.80;4.20;;;;;;;1.99;77.41;95827.73;107656;1266;29889;-74
2022/01/06 11:40:34;;;;;;;7.00;3.80;;;;;;;1.89;78.13;95850.87;107696;1267;34498;-75
2022/01/06 11:43:05;;;;;;;2.30;1.10;;;;;;;1.70;79.46;95861.69;107602;1268;35667;-75
2022/01/06 11:45:36;;;;;;;0.90;0.80;;;;;;;1.25;81.96;95871.04;107524;1270;43251;-74
2022/01/06 11:48:09;;;;;;;3.70;2.40;;;;;;;0.88;84.26;95879.31;107615;1267;41979;-75
2022/01/06 11:50:43;;;;;;;5.60;2.20;;;;;;;0.65;85.56;95878.16;107581;1268;31478;-74
2022/01/06 11:53:15;;;;;;;4.40;1.60;;;;;;;0.50;86.45;95879.77;107685;1268;40598;-75
2022/01/06 11:55:47;;;;;;;8.40;2.90;;;;;;;0.39;87.30;95876.85;107751;1268;44203;-74
2022/01/06 11:58:21;;;;;;;6.00;3.60;;;;;;;0.35;87.22;95862.70;107806;1268;37480;-75
2022/01/06 12:00:59;;;;;;;4.10;2.70;;;;;;;0.34;87.03;95876.18;107614;1265;43383;-74